sensor_id;sensor_type;location;lat;lon;timestamp;pressure;altitude;pressure_sealevel;temperature;humidity
51781;BME280;37844;57.126;24.288;2023-04-27T00:01:40;100854.78;;;6.22;100.00
51781;BME280;37844;57.126;24.288;2023-04-27T00:04:24;100851.97;;;6.14;100.00
51781;BME280;37844;57.126;24.288;2023-04-27T00:07:08;100845.91;;;6.12;100.00
51781;BME280;37844;57.126;24.288;2023-04-27T00:09:52;100854.13;;;6.02;100.00
51781;BME280;37844;57.126;24.288;2023-04-27T00:12:37;100858.72;;;5.86;100.00
51781;BME280;37844;57.126;24.288;2023-04-27T00:15:21;100855.25;;;5.86;100.00
51781;BME280;37844;57.126;24.288;2023-04-27T00:18:05;100858.88;;;5.91;100.00
51781;BME280;37844;57.126;24.288;2023-04-27T00:20:49;100856.16;;;5.86;100.00
51781;BME280;37844;57.126;24.288;2023-04-27T00:23:33;100865.47;;;5.86;100.00
51781;BME280;37844;57.126;24.288;2023-04-27T00:26:17;100868.88;;;5.85;100.00
51781;BME280;37844;57.126;24.288;2023-04-27T00:29:01;100863.69;;;5.83;100.00
51781;BME280;37844;57.126;24.288;2023-04-27T00:31:45;100867.34;;;5.90;100.00
51781;BME280;37844;57.126;24.288;2023-04-27T00:34:29;100869.31;;;5.97;100.00
51781;BME280;37844;57.126;24.288;2023-04-27T00:37:13;100866.84;;;6.00;100.00
51781;BME280;37844;57.126;24.288;2023-04-27T00:39:57;100874.84;;;5.85;100.00
51781;BME280;37844;57.126;24.288;2023-04-27T00:42:41;100876.38;;;5.80;100.00
51781;BME280;37844;57.126;24.288;2023-04-27T00:45:25;100877.41;;;5.85;100.00
51781;BME280;37844;57.126;24.288;2023-04-27T00:48:09;100875.78;;;5.87;100.00
51781;BME280;37844;57.126;24.288;2023-04-27T00:50:54;100886.19;;;5.92;100.00
51781;BME280;37844;57.126;24.288;2023-04-27T00:53:38;100877.16;;;6.02;100.00
51781;BME280;37844;57.126;24.288;2023-04-27T00:56:22;100872.75;;;5.98;100.00
51781;BME280;37844;57.126;24.288;2023-04-27T00:59:06;100889.78;;;5.97;100.00
51781;BME280;37844;57.126;24.288;2023-04-27T01:01:50;100884.47;;;5.92;100.00
51781;BME280;37844;57.126;24.288;2023-04-27T01:04:34;100875.84;;;5.89;100.00
51781;BME280;37844;57.126;24.288;2023-04-27T01:07:23;100882.59;;;5.87;100.00
51781;BME280;37844;57.126;24.288;2023-04-27T01:10:07;100884.44;;;5.91;100.00
51781;BME280;37844;57.126;24.288;2023-04-27T01:12:52;100885.94;;;5.86;100.00
51781;BME280;37844;57.126;24.288;2023-04-27T01:15:36;100882.78;;;5.93;100.00
51781;BME280;37844;57.126;24.288;2023-04-27T01:18:20;100891.28;;;5.92;100.00
51781;BME280;37844;57.126;24.288;2023-04-27T01:21:04;100882.41;;;6.06;100.00
51781;BME280;37844;57.126;24.288;2023-04-27T01:23:48;100878.63;;;6.21;100.00
51781;BME280;37844;57.126;24.288;2023-04-27T01:26:32;100881.91;;;6.16;100.00
51781;BME280;37844;57.126;24.288;2023-04-27T01:29:16;100878.16;;;6.07;100.00
51781;BME280;37844;57.126;24.288;2023-04-27T01:32:00;100889.88;;;6.00;100.00
51781;BME280;37844;57.126;24.288;2023-04-27T01:34:44;100885.69;;;6.02;100.00
51781;BME280;37844;57.126;24.288;2023-04-27T01:37:28;100894.63;;;5.89;100.00
51781;BME280;37844;57.126;24.288;2023-04-27T01:40:12;100890.97;;;5.83;100.00
51781;BME280;37844;57.126;24.288;2023-04-27T01:42:56;100897.00;;;5.85;100.00
51781;BME280;37844;57.126;24.288;2023-04-27T01:45:40;100899.50;;;5.83;100.00
51781;BME280;37844;57.126;24.288;2023-04-27T01:48:24;100895.31;;;5.85;100.00
51781;BME280;37844;57.126;24.288;2023-04-27T01:51:08;100893.34;;;6.01;100.00
51781;BME280;37844;57.126;24.288;2023-04-27T01:53:51;100895.91;;;6.01;100.00
51781;BME280;37844;57.126;24.288;2023-04-27T01:56:35;100893.75;;;5.89;100.00
51781;BME280;37844;57.126;24.288;2023-04-27T01:59:19;100904.94;;;5.92;100.00
51781;BME280;37844;57.126;24.288;2023-04-27T02:02:03;100896.94;;;5.83;100.00
51781;BME280;37844;57.126;24.288;2023-04-27T02:04:47;100897.63;;;5.78;100.00
51781;BME280;37844;57.126;24.288;2023-04-27T02:07:31;100899.63;;;5.86;100.00
51781;BME280;37844;57.126;24.288;2023-04-27T02:10:15;100894.06;;;5.74;100.00
51781;BME280;37844;57.126;24.288;2023-04-27T02:13:00;100899.34;;;5.79;100.00
51781;BME280;37844;57.126;24.288;2023-04-27T02:15:44;100897.97;;;5.88;100.00
51781;BME280;37844;57.126;24.288;2023-04-27T02:18:28;100896.25;;;5.87;100.00
51781;BME280;37844;57.126;24.288;2023-04-27T02:21:12;100901.44;;;5.89;100.00
51781;BME280;37844;57.126;24.288;2023-04-27T02:23:56;100896.69;;;5.76;100.00
51781;BME280;37844;57.126;24.288;2023-04-27T02:26:40;100898.81;;;5.87;100.00
51781;BME280;37844;57.126;24.288;2023-04-27T02:29:28;100905.38;;;5.81;100.00
51781;BME280;37844;57.126;24.288;2023-04-27T02:32:12;100906.31;;;5.83;100.00
51781;BME280;37844;57.126;24.288;2023-04-27T02:35:08;100910.75;;;5.88;100.00
51781;BME280;37844;57.126;24.288;2023-04-27T02:37:52;100909.13;;;5.90;100.00
51781;BME280;37844;57.126;24.288;2023-04-27T02:40:37;100917.53;;;5.86;100.00
51781;BME280;37844;57.126;24.288;2023-04-27T02:43:21;100920.63;;;5.78;100.00
51781;BME280;37844;57.126;24.288;2023-04-27T02:46:05;100926.19;;;5.66;100.00
51781;BME280;37844;57.126;24.288;2023-04-27T02:48:49;100924.72;;;5.72;100.00
51781;BME280;37844;57.126;24.288;2023-04-27T02:51:33;100922.16;;;5.72;100.00
51781;BME280;37844;57.126;24.288;2023-04-27T02:54:17;100926.88;;;5.62;100.00
51781;BME280;37844;57.126;24.288;2023-04-27T02:57:04;100926.94;;;5.63;100.00
51781;BME280;37844;57.126;24.288;2023-04-27T02:59:49;100936.03;;;5.55;100.00
51781;BME280;37844;57.126;24.288;2023-04-27T03:02:33;100936.16;;;5.36;100.00
51781;BME280;37844;57.126;24.288;2023-04-27T03:05:17;100937.03;;;5.36;100.00
51781;BME280;37844;57.126;24.288;2023-04-27T03:08:00;100938.03;;;5.40;100.00
51781;BME280;37844;57.126;24.288;2023-04-27T03:10:44;100945.94;;;5.23;100.00
51781;BME280;37844;57.126;24.288;2023-04-27T03:13:28;100944.13;;;5.21;100.00
51781;BME280;37844;57.126;24.288;2023-04-27T03:16:12;100942.44;;;5.21;100.00
51781;BME280;37844;57.126;24.288;2023-04-27T03:18:56;100951.91;;;5.24;100.00
51781;BME280;37844;57.126;24.288;2023-04-27T03:21:40;100951.91;;;5.24;100.00
51781;BME280;37844;57.126;24.288;2023-04-27T03:24:24;100951.03;;;5.23;100.00
51781;BME280;37844;57.126;24.288;2023-04-27T03:27:08;100951.91;;;5.24;100.00
51781;BME280;37844;57.126;24.288;2023-04-27T03:29:52;100952.16;;;5.30;100.00
51781;BME280;37844;57.126;24.288;2023-04-27T03:32:36;100951.31;;;5.31;100.00
51781;BME280;37844;57.126;24.288;2023-04-27T03:35:20;100958.31;;;5.35;100.00
51781;BME280;37844;57.126;24.288;2023-04-27T03:38:04;100955.84;;;5.38;100.00
51781;BME280;37844;57.126;24.288;2023-04-27T03:40:49;100951.06;;;5.46;100.00
51781;BME280;37844;57.126;24.288;2023-04-27T03:43:33;100960.91;;;5.59;100.00
51781;BME280;37844;57.126;24.288;2023-04-27T03:46:17;100965.31;;;5.63;100.00
51781;BME280;37844;57.126;24.288;2023-04-27T03:49:01;100973.78;;;5.62;100.00
51781;BME280;37844;57.126;24.288;2023-04-27T03:51:44;100968.72;;;5.64;100.00
51781;BME280;37844;57.126;24.288;2023-04-27T03:54:31;100968.06;;;5.69;100.00
51781;BME280;37844;57.126;24.288;2023-04-27T03:57:15;100966.63;;;5.76;100.00
51781;BME280;37844;57.126;24.288;2023-04-27T03:59:59;100963.28;;;5.79;100.00
51781;BME280;37844;57.126;24.288;2023-04-27T04:02:44;100965.47;;;5.68;100.00
51781;BME280;37844;57.126;24.288;2023-04-27T04:05:28;100978.28;;;5.68;100.00
51781;BME280;37844;57.126;24.288;2023-04-27T04:08:13;100974.88;;;5.69;100.00
51781;BME280;37844;57.126;24.288;2023-04-27T04:10:57;100981.38;;;5.83;100.00
51781;BME280;37844;57.126;24.288;2023-04-27T04:13:41;100982.41;;;5.88;100.00
51781;BME280;37844;57.126;24.288;2023-04-27T04:16:25;100981.84;;;5.95;100.00
51781;BME280;37844;57.126;24.288;2023-04-27T04:19:09;100988.44;;;6.13;100.00
51781;BME280;37844;57.126;24.288;2023-04-27T04:21:53;100987.00;;;6.21;100.00
51781;BME280;37844;57.126;24.288;2023-04-27T04:24:39;100988.25;;;6.32;100.00
51781;BME280;37844;57.126;24.288;2023-04-27T04:27:24;100985.91;;;6.39;100.00
51781;BME280;37844;57.126;24.288;2023-04-27T04:30:08;100991.91;;;6.41;100.00
51781;BME280;37844;57.126;24.288;2023-04-27T04:32:52;100992.22;;;6.50;100.00
51781;BME280;37844;57.126;24.288;2023-04-27T04:35:38;100992.69;;;6.38;100.00
51781;BME280;37844;57.126;24.288;2023-04-27T04:38:22;100999.81;;;6.47;100.00
51781;BME280;37844;57.126;24.288;2023-04-27T04:41:06;101002.59;;;6.53;100.00
51781;BME280;37844;57.126;24.288;2023-04-27T04:43:50;101006.19;;;6.58;100.00
51781;BME280;37844;57.126;24.288;2023-04-27T04:46:34;101005.41;;;6.61;100.00
51781;BME280;37844;57.126;24.288;2023-04-27T04:49:19;101003.31;;;6.74;100.00
51781;BME280;37844;57.126;24.288;2023-04-27T04:52:03;101006.88;;;6.79;100.00
51781;BME280;37844;57.126;24.288;2023-04-27T04:54:50;101005.28;;;6.83;100.00
51781;BME280;37844;57.126;24.288;2023-04-27T04:57:34;100996.00;;;6.87;100.00
51781;BME280;37844;57.126;24.288;2023-04-27T05:00:18;101002.34;;;6.98;100.00
51781;BME280;37844;57.126;24.288;2023-04-27T05:03:02;101003.66;;;7.12;100.00
51781;BME280;37844;57.126;24.288;2023-04-27T05:05:46;101007.41;;;7.23;100.00
51781;BME280;37844;57.126;24.288;2023-04-27T05:08:30;101012.78;;;7.31;100.00
51781;BME280;37844;57.126;24.288;2023-04-27T05:11:14;101016.28;;;7.35;100.00
51781;BME280;37844;57.126;24.288;2023-04-27T05:13:58;101017.91;;;7.60;100.00
51781;BME280;37844;57.126;24.288;2023-04-27T05:16:42;101019.56;;;7.58;100.00
51781;BME280;37844;57.126;24.288;2023-04-27T05:19:29;101030.75;;;7.61;100.00
51781;BME280;37844;57.126;24.288;2023-04-27T05:22:14;101021.56;;;7.68;100.00
51781;BME280;37844;57.126;24.288;2023-04-27T05:24:58;101027.28;;;7.88;100.00
51781;BME280;37844;57.126;24.288;2023-04-27T05:27:42;101032.81;;;8.03;100.00
51781;BME280;37844;57.126;24.288;2023-04-27T05:30:26;101037.16;;;8.04;100.00
51781;BME280;37844;57.126;24.288;2023-04-27T05:33:10;101037.25;;;8.09;100.00
51781;BME280;37844;57.126;24.288;2023-04-27T05:35:54;101041.13;;;8.25;100.00
51781;BME280;37844;57.126;24.288;2023-04-27T05:38:38;101049.06;;;8.34;100.00
51781;BME280;37844;57.126;24.288;2023-04-27T05:41:22;101044.41;;;8.51;100.00
51781;BME280;37844;57.126;24.288;2023-04-27T05:44:06;101045.91;;;8.76;100.00
51781;BME280;37844;57.126;24.288;2023-04-27T05:46:50;101046.97;;;8.84;100.00
51781;BME280;37844;57.126;24.288;2023-04-27T05:49:34;101044.91;;;9.04;100.00
51781;BME280;37844;57.126;24.288;2023-04-27T05:52:18;101043.00;;;8.97;100.00
51781;BME280;37844;57.126;24.288;2023-04-27T05:55:03;101050.94;;;8.72;100.00
51781;BME280;37844;57.126;24.288;2023-04-27T05:57:46;101046.31;;;8.58;100.00
51781;BME280;37844;57.126;24.288;2023-04-27T06:00:30;101052.28;;;8.57;100.00
51781;BME280;37844;57.126;24.288;2023-04-27T06:03:14;101045.38;;;8.89;100.00
51781;BME280;37844;57.126;24.288;2023-04-27T06:05:59;101048.91;;;9.29;100.00
51781;BME280;37844;57.126;24.288;2023-04-27T06:08:43;101045.53;;;9.32;100.00
51781;BME280;37844;57.126;24.288;2023-04-27T06:11:27;101049.75;;;10.10;100.00
51781;BME280;37844;57.126;24.288;2023-04-27T06:14:11;101052.56;;;10.23;100.00
51781;BME280;37844;57.126;24.288;2023-04-27T06:16:56;101051.38;;;10.96;100.00
51781;BME280;37844;57.126;24.288;2023-04-27T06:19:39;101051.56;;;11.68;100.00
51781;BME280;37844;57.126;24.288;2023-04-27T06:22:23;101059.97;;;11.55;100.00
51781;BME280;37844;57.126;24.288;2023-04-27T06:25:07;101055.06;;;12.43;100.00
51781;BME280;37844;57.126;24.288;2023-04-27T06:27:51;101055.34;;;14.03;100.00
51781;BME280;37844;57.126;24.288;2023-04-27T06:30:35;101058.97;;;14.80;94.91
51781;BME280;37844;57.126;24.288;2023-04-27T06:33:19;101058.03;;;15.61;86.78
51781;BME280;37844;57.126;24.288;2023-04-27T06:36:03;101066.50;;;16.20;81.85
51781;BME280;37844;57.126;24.288;2023-04-27T06:38:47;101066.22;;;16.64;75.11
51781;BME280;37844;57.126;24.288;2023-04-27T06:41:31;101072.31;;;16.65;72.26
51781;BME280;37844;57.126;24.288;2023-04-27T06:44:16;101066.22;;;16.66;68.97
51781;BME280;37844;57.126;24.288;2023-04-27T06:47:01;101070.16;;;15.80;68.21
51781;BME280;37844;57.126;24.288;2023-04-27T06:49:44;101078.78;;;15.84;69.05
51781;BME280;37844;57.126;24.288;2023-04-27T06:52:30;101077.09;;;15.64;68.80
51781;BME280;37844;57.126;24.288;2023-04-27T06:55:14;101087.41;;;15.92;68.80
51781;BME280;37844;57.126;24.288;2023-04-27T06:57:58;101088.38;;;15.71;67.11
51781;BME280;37844;57.126;24.288;2023-04-27T07:00:42;101097.88;;;15.69;67.37
51781;BME280;37844;57.126;24.288;2023-04-27T07:03:26;101104.84;;;15.42;66.74
51781;BME280;37844;57.126;24.288;2023-04-27T07:06:10;101102.28;;;15.02;67.51
51781;BME280;37844;57.126;24.288;2023-04-27T07:08:54;101095.34;;;14.91;68.26
51781;BME280;37844;57.126;24.288;2023-04-27T07:11:37;101106.56;;;14.83;67.40
51781;BME280;37844;57.126;24.288;2023-04-27T07:14:22;101103.09;;;14.97;66.84
51781;BME280;37844;57.126;24.288;2023-04-27T07:17:05;101109.03;;;16.05;64.67
51781;BME280;37844;57.126;24.288;2023-04-27T07:19:49;101112.16;;;16.74;62.69
51781;BME280;37844;57.126;24.288;2023-04-27T07:22:33;101099.13;;;18.49;59.86
51781;BME280;37844;57.126;24.288;2023-04-27T07:25:18;101098.44;;;18.95;57.56
51781;BME280;37844;57.126;24.288;2023-04-27T07:28:02;101113.44;;;19.37;55.09
51781;BME280;37844;57.126;24.288;2023-04-27T07:30:47;101115.53;;;19.15;54.85
51781;BME280;37844;57.126;24.288;2023-04-27T07:33:31;101117.97;;;19.77;53.26
51781;BME280;37844;57.126;24.288;2023-04-27T07:36:16;101126.22;;;20.42;51.47
51781;BME280;37844;57.126;24.288;2023-04-27T07:39:00;101117.16;;;21.32;49.39
51781;BME280;37844;57.126;24.288;2023-04-27T07:41:45;101131.44;;;21.54;48.68
51781;BME280;37844;57.126;24.288;2023-04-27T07:44:29;101135.22;;;21.08;47.99
51781;BME280;37844;57.126;24.288;2023-04-27T07:47:13;101130.47;;;20.87;47.58
51781;BME280;37844;57.126;24.288;2023-04-27T07:49:57;101138.03;;;20.62;47.81
51781;BME280;37844;57.126;24.288;2023-04-27T07:52:41;101128.16;;;21.46;47.53
51781;BME280;37844;57.126;24.288;2023-04-27T07:55:25;101136.41;;;22.29;45.51
51781;BME280;37844;57.126;24.288;2023-04-27T07:58:09;101136.47;;;22.84;44.66
51781;BME280;37844;57.126;24.288;2023-04-27T08:00:53;101145.41;;;21.88;43.33
51781;BME280;37844;57.126;24.288;2023-04-27T08:03:37;101154.28;;;21.84;45.08
51781;BME280;37844;57.126;24.288;2023-04-27T08:06:21;101150.47;;;22.84;43.47
51781;BME280;37844;57.126;24.288;2023-04-27T08:09:05;101154.53;;;22.95;43.65
51781;BME280;37844;57.126;24.288;2023-04-27T08:11:49;101155.41;;;23.48;42.22
51781;BME280;37844;57.126;24.288;2023-04-27T08:14:36;101155.06;;;23.84;41.39
51781;BME280;37844;57.126;24.288;2023-04-27T08:17:20;101152.59;;;23.80;40.93
51781;BME280;37844;57.126;24.288;2023-04-27T08:20:07;101161.91;;;24.37;41.03
51781;BME280;37844;57.126;24.288;2023-04-27T08:22:54;101163.84;;;24.32;39.59
51781;BME280;37844;57.126;24.288;2023-04-27T08:25:38;101163.66;;;24.13;39.29
51781;BME280;37844;57.126;24.288;2023-04-27T08:28:22;101167.69;;;23.75;40.49
51781;BME280;37844;57.126;24.288;2023-04-27T08:31:06;101172.41;;;24.62;40.18
51781;BME280;37844;57.126;24.288;2023-04-27T08:33:50;101171.03;;;24.52;38.68
51781;BME280;37844;57.126;24.288;2023-04-27T08:36:35;101174.28;;;23.61;40.59
51781;BME280;37844;57.126;24.288;2023-04-27T08:39:19;101180.09;;;23.71;39.51
51781;BME280;37844;57.126;24.288;2023-04-27T08:42:10;101177.41;;;23.98;38.94
51781;BME280;37844;57.126;24.288;2023-04-27T08:44:54;101179.72;;;23.82;38.44
51781;BME280;37844;57.126;24.288;2023-04-27T08:47:39;101188.44;;;23.57;39.31
51781;BME280;37844;57.126;24.288;2023-04-27T08:50:23;101185.63;;;23.88;39.19
51781;BME280;37844;57.126;24.288;2023-04-27T08:53:15;101183.34;;;22.40;38.55
51781;BME280;37844;57.126;24.288;2023-04-27T08:55:59;101191.53;;;22.59;40.01
51781;BME280;37844;57.126;24.288;2023-04-27T08:58:44;101194.88;;;23.48;39.82
51781;BME280;37844;57.126;24.288;2023-04-27T09:01:29;101188.59;;;22.70;39.13
51781;BME280;37844;57.126;24.288;2023-04-27T09:04:13;101205.72;;;22.23;39.83
51781;BME280;37844;57.126;24.288;2023-04-27T09:06:58;101207.88;;;22.08;39.89
51781;BME280;37844;57.126;24.288;2023-04-27T09:10:00;101207.41;;;21.92;40.65
51781;BME280;37844;57.126;24.288;2023-04-27T09:12:52;101204.69;;;22.59;39.54
51781;BME280;37844;57.126;24.288;2023-04-27T09:15:40;101206.53;;;22.26;39.99
51781;BME280;37844;57.126;24.288;2023-04-27T09:18:25;101212.00;;;21.51;40.83
51781;BME280;37844;57.126;24.288;2023-04-27T09:21:09;101215.41;;;23.11;40.29
51781;BME280;37844;57.126;24.288;2023-04-27T09:23:53;101215.28;;;22.26;38.78
51781;BME280;37844;57.126;24.288;2023-04-27T09:26:38;101213.16;;;22.98;37.63
51781;BME280;37844;57.126;24.288;2023-04-27T09:29:32;101213.47;;;22.58;38.08
51781;BME280;37844;57.126;24.288;2023-04-27T09:32:16;101211.84;;;22.54;36.72
51781;BME280;37844;57.126;24.288;2023-04-27T09:35:01;101206.59;;;22.83;36.02
51781;BME280;37844;57.126;24.288;2023-04-27T09:37:47;101217.91;;;21.93;37.52
51781;BME280;37844;57.126;24.288;2023-04-27T09:40:32;101208.25;;;22.27;38.04
51781;BME280;37844;57.126;24.288;2023-04-27T09:43:16;101218.16;;;21.50;37.17
51781;BME280;37844;57.126;24.288;2023-04-27T09:46:00;101215.03;;;21.68;37.23
51781;BME280;37844;57.126;24.288;2023-04-27T09:48:46;101212.28;;;21.00;38.39
51781;BME280;37844;57.126;24.288;2023-04-27T09:51:32;101212.78;;;20.34;38.13
51781;BME280;37844;57.126;24.288;2023-04-27T09:54:16;101215.28;;;19.44;40.68
51781;BME280;37844;57.126;24.288;2023-04-27T09:57:08;101205.00;;;19.32;40.32
51781;BME280;37844;57.126;24.288;2023-04-27T10:00:13;101212.59;;;18.92;39.68
51781;BME280;37844;57.126;24.288;2023-04-27T10:09:05;101219.72;;;16.92;41.72
51781;BME280;37844;57.126;24.288;2023-04-27T10:11:50;101212.13;;;16.32;43.32
51781;BME280;37844;57.126;24.288;2023-04-27T10:14:34;101204.34;;;16.24;43.17
51781;BME280;37844;57.126;24.288;2023-04-27T10:17:22;101207.00;;;16.01;42.66
51781;BME280;37844;57.126;24.288;2023-04-27T10:20:08;101211.25;;;16.33;43.17
51781;BME280;37844;57.126;24.288;2023-04-27T10:22:52;101208.69;;;16.25;44.57
51781;BME280;37844;57.126;24.288;2023-04-27T10:25:37;101212.25;;;15.77;45.09
51781;BME280;37844;57.126;24.288;2023-04-27T10:28:21;101215.63;;;16.22;45.54
51781;BME280;37844;57.126;24.288;2023-04-27T10:31:09;101205.28;;;15.86;44.76
51781;BME280;37844;57.126;24.288;2023-04-27T10:34:09;101203.53;;;15.98;45.00
51781;BME280;37844;57.126;24.288;2023-04-27T10:37:06;101207.06;;;15.78;45.30
51781;BME280;37844;57.126;24.288;2023-04-27T10:39:50;101216.50;;;15.05;45.76
51781;BME280;37844;57.126;24.288;2023-04-27T10:42:34;101217.38;;;15.00;46.22
51781;BME280;37844;57.126;24.288;2023-04-27T10:45:32;101217.34;;;14.97;46.72
51781;BME280;37844;57.126;24.288;2023-04-27T10:48:16;101211.25;;;14.79;46.43
51781;BME280;37844;57.126;24.288;2023-04-27T10:51:00;101226.78;;;14.78;47.18
51781;BME280;37844;57.126;24.288;2023-04-27T10:53:50;101224.19;;;14.73;46.66
51781;BME280;37844;57.126;24.288;2023-04-27T10:56:35;101219.88;;;14.77;46.75
51781;BME280;37844;57.126;24.288;2023-04-27T10:59:19;101222.53;;;14.94;47.78
51781;BME280;37844;57.126;24.288;2023-04-27T11:02:03;101223.34;;;14.80;47.21
51781;BME280;37844;57.126;24.288;2023-04-27T11:04:47;101223.31;;;14.65;46.78
51781;BME280;37844;57.126;24.288;2023-04-27T11:07:31;101225.00;;;14.58;46.61
51781;BME280;37844;57.126;24.288;2023-04-27T11:10:17;101229.25;;;14.46;46.45
51781;BME280;37844;57.126;24.288;2023-04-27T11:13:06;101229.19;;;14.36;45.11
51781;BME280;37844;57.126;24.288;2023-04-27T11:15:53;101229.13;;;14.26;45.53
51781;BME280;37844;57.126;24.288;2023-04-27T11:18:37;101241.34;;;14.45;46.92
51781;BME280;37844;57.126;24.288;2023-04-27T11:21:21;101242.19;;;14.42;45.90
51781;BME280;37844;57.126;24.288;2023-04-27T11:24:06;101241.16;;;14.16;46.03
51781;BME280;37844;57.126;24.288;2023-04-27T11:26:50;101247.94;;;13.92;47.46
51781;BME280;37844;57.126;24.288;2023-04-27T11:29:38;101233.16;;;13.81;47.95
51781;BME280;37844;57.126;24.288;2023-04-27T11:32:23;101235.97;;;14.13;48.23
51781;BME280;37844;57.126;24.288;2023-04-27T11:35:08;101240.22;;;14.03;45.72
51781;BME280;37844;57.126;24.288;2023-04-27T11:37:56;101234.97;;;13.91;45.62
51781;BME280;37844;57.126;24.288;2023-04-27T11:40:42;101232.38;;;13.89;46.21
51781;BME280;37844;57.126;24.288;2023-04-27T11:43:26;101227.25;;;14.02;47.19
51781;BME280;37844;57.126;24.288;2023-04-27T11:46:11;101230.69;;;13.99;46.71
51781;BME280;37844;57.126;24.288;2023-04-27T11:49:00;101236.06;;;14.27;47.14
51781;BME280;37844;57.126;24.288;2023-04-27T11:51:44;101238.66;;;14.28;46.52
51781;BME280;37844;57.126;24.288;2023-04-27T11:54:28;101228.13;;;14.02;47.42
51781;BME280;37844;57.126;24.288;2023-04-27T11:57:12;101231.66;;;14.12;47.42
51781;BME280;37844;57.126;24.288;2023-04-27T11:59:58;101230.88;;;14.28;47.88
51781;BME280;37844;57.126;24.288;2023-04-27T12:02:45;101229.16;;;14.32;45.20
51781;BME280;37844;57.126;24.288;2023-04-27T12:05:29;101232.59;;;14.25;45.54
51781;BME280;37844;57.126;24.288;2023-04-27T12:08:14;101238.59;;;14.14;46.13
51781;BME280;37844;57.126;24.288;2023-04-27T12:10:58;101235.16;;;14.20;46.81
51781;BME280;37844;57.126;24.288;2023-04-27T12:13:42;101235.97;;;14.16;46.14
51781;BME280;37844;57.126;24.288;2023-04-27T12:16:26;101247.94;;;13.94;45.63
51781;BME280;37844;57.126;24.288;2023-04-27T12:19:10;101247.13;;;13.98;47.59
51781;BME280;37844;57.126;24.288;2023-04-27T12:21:54;101243.72;;;14.11;45.99
51781;BME280;37844;57.126;24.288;2023-04-27T12:24:38;101241.97;;;14.03;45.98
51781;BME280;37844;57.126;24.288;2023-04-27T12:27:22;101246.28;;;14.04;45.54
51781;BME280;37844;57.126;24.288;2023-04-27T12:30:06;101253.16;;;13.98;45.52
51781;BME280;37844;57.126;24.288;2023-04-27T12:32:50;101253.88;;;13.79;44.47
51781;BME280;37844;57.126;24.288;2023-04-27T12:35:34;101251.91;;;13.49;45.09
51781;BME280;37844;57.126;24.288;2023-04-27T12:38:18;101266.56;;;13.50;45.89
51781;BME280;37844;57.126;24.288;2023-04-27T12:41:02;101263.69;;;13.22;46.18
51781;BME280;37844;57.126;24.288;2023-04-27T12:43:46;101257.00;;;13.41;46.73
51781;BME280;37844;57.126;24.288;2023-04-27T12:46:31;101253.66;;;13.53;46.70
51781;BME280;37844;57.126;24.288;2023-04-27T12:49:15;101257.75;;;13.29;46.26
51781;BME280;37844;57.126;24.288;2023-04-27T12:52:00;101257.66;;;13.26;47.00
51781;BME280;37844;57.126;24.288;2023-04-27T12:54:44;101258.22;;;12.94;46.23
51781;BME280;37844;57.126;24.288;2023-04-27T12:57:29;101261.50;;;12.81;45.57
51781;BME280;37844;57.126;24.288;2023-04-27T13:00:13;101268.28;;;12.71;45.50
51781;BME280;37844;57.126;24.288;2023-04-27T13:02:58;101265.75;;;12.76;46.52
51781;BME280;37844;57.126;24.288;2023-04-27T13:05:42;101275.84;;;12.56;46.40
51781;BME280;37844;57.126;24.288;2023-04-27T13:08:27;101277.66;;;12.63;47.48
51781;BME280;37844;57.126;24.288;2023-04-27T13:11:11;101271.75;;;12.73;47.79
51781;BME280;37844;57.126;24.288;2023-04-27T13:14:07;101267.38;;;12.68;46.99
51781;BME280;37844;57.126;24.288;2023-04-27T13:16:53;101274.22;;;12.63;47.52
51781;BME280;37844;57.126;24.288;2023-04-27T13:19:37;101264.78;;;12.68;46.67
51781;BME280;37844;57.126;24.288;2023-04-27T13:22:21;101263.34;;;12.88;47.91
51781;BME280;37844;57.126;24.288;2023-04-27T13:25:06;101269.22;;;12.77;48.29
51781;BME280;37844;57.126;24.288;2023-04-27T13:27:50;101274.56;;;12.92;48.78
51781;BME280;37844;57.126;24.288;2023-04-27T13:30:34;101276.31;;;12.94;48.05
51781;BME280;37844;57.126;24.288;2023-04-27T13:33:18;101285.66;;;12.82;48.25
51781;BME280;37844;57.126;24.288;2023-04-27T13:36:02;101289.03;;;12.75;48.53
51781;BME280;37844;57.126;24.288;2023-04-27T13:38:46;101221.09;;;12.24;48.72
51781;BME280;37844;57.126;24.288;2023-04-27T13:41:30;101290.53;;;12.59;48.04
51781;BME280;37844;57.126;24.288;2023-04-27T13:44:14;101291.47;;;12.64;47.51
51781;BME280;37844;57.126;24.288;2023-04-27T13:46:59;101287.84;;;12.52;48.06
51781;BME280;37844;57.126;24.288;2023-04-27T13:49:43;101286.03;;;12.44;47.77
51781;BME280;37844;57.126;24.288;2023-04-27T13:52:27;101292.16;;;12.52;47.34
51781;BME280;37844;57.126;24.288;2023-04-27T13:55:12;101292.97;;;12.46;48.08
51781;BME280;37844;57.126;24.288;2023-04-27T13:57:56;101292.97;;;12.48;47.95
51781;BME280;37844;57.126;24.288;2023-04-27T14:00:40;101289.47;;;12.44;47.47
51781;BME280;37844;57.126;24.288;2023-04-27T14:03:24;101294.72;;;12.49;48.28
51781;BME280;37844;57.126;24.288;2023-04-27T14:06:08;101293.78;;;12.45;48.56
51781;BME280;37844;57.126;24.288;2023-04-27T14:08:52;101294.63;;;12.41;48.51
51781;BME280;37844;57.126;24.288;2023-04-27T14:11:36;101299.66;;;12.32;48.22
51781;BME280;37844;57.126;24.288;2023-04-27T14:14:21;101310.69;;;12.22;48.53
51781;BME280;37844;57.126;24.288;2023-04-27T14:17:05;101316.78;;;12.25;49.28